Garfield, Minnesota
Current Conditions -  °F | °C
As of 12:53 PM on Friday 31 Oct 2014 (Local Time) from KAXN Reporting Station
Clear Clear  
Wind Chill: 30°   Ceiling: Unl
Heat Index: 34°   Visibility: 10mi
Dew Point: 18°   Wind: 5mph
Humidity: 52%   Direction: 80°E
Pressure: 30.56"   Gusts: NA
Location:  45.94°N, 95.49°W
Report Text: KAXN 311753Z AUTO 08004KT 10SM CLR 01/M08 A3056 RMK AO2 SLP368 T00111078 10011 21044 58008
Loading
Personal Weather Stations






























Interactive Weather Map
Tropical Storm Tracking
New forecast layout! Learn more

10-Day Weather Forecast

Advertisements
Track Severe Weather on mobile